Merida, Mexico

5:47 PM CST on October 30, 2014 (GMT -0600)
Chuburna Merida Yuc | Change Station
CLOSE
Current Station
Personal Weather Station
Location: Merida, YUCATAN
Elevation: 26 ft
Nearby Weather Stations

Elev 26 ft 21.02 °N, 89.64 °W | Updated 1 minute ago

Mostly Cloudy
Mostly Cloudy
79.2 °F
Feels Like 83 °F
N
3.0
Wind Variable Wind from NE
Gusts 4.0 mph

Today
High -- | Low -- °F
--% Chance of Precip.
Yesterday
High -- | Low -- °F
Precip. -- in
6:00 AM 5:23 PM
Waxing Crescent, 49% visible
Pressure 29.89 in
Visibility 7.0 miles
Clouds Scattered Clouds 10000 ft
Mostly Cloudy 25000 ft
Heat Index 83 °F
Dew Point 73 °F
Humidity 81%
Rainfall 0.00 in
Snow Depth Not available.
UV 0.0 out of 12
Pollen Not available.
Air Quality Not available.
Flu Activity Not available.
METAR MMMD 302250Z 36010KT 7SM SCT100 BKN250 27/22 A2989 RMK 8/078

More Conditions Fewer Conditions

Pressure 29.89 in
Visibility 7.0 miles
Clouds Scattered Clouds 10000 ft
Mostly Cloudy 25000 ft
Heat Index 83 °F
Dew Point 73 °F
Humidity 81%
Rainfall 0.00 in
Snow Depth Not available.
UV 0.0 out of 12
Pollen Not available.
Air Quality Not available.
Flu Activity Not available.
METAR MMMD 302250Z 36010KT 7SM SCT100 BKN250 27/22 A2989 RMK 8/078

More Conditions Fewer Conditions

10-Day Weather Forecast

Almanac

Astronomy

Oct. 30, 2014 Rise Set
Actual Time
Civil Twilight
Nautical Twilight
Astronomical Twilight
Moon
Length of Visible Light
Length of Day
Tomorrow will be .
, % of the Moon is Illuminated

Today's Extremes

Country Highs Country Lows

Community

WunderPhotos

Upload Photos

1,766,496 photos uploaded!

WunderBlogs® & News

Nearby

Air Quality

  Air Quality AQ Index Pollutant
Not available.

Snow Depth

Station Depth Elevation

Earthquake Activity

City Distance Mag. Time & Date
Minimum magnitude displayed is 2.5.

Coastal Water Temperatures

Place Temperature

Nearby Weather Stations